Accueil
METAR-TAF:

METAR-TAF

Aéroports :

Avignon, France

Aéroport d'Avignon-Provence

latitude: 43-54-26N, longitude: 004-54-07E, altitude: 38 m

Observation

Le bulletin a été fait il y a 38 minutes, à 19:00 UTC
Vent 16 kt de nord/nord-ouest
Température 25°C
Humidité 44%
Pression 1015 hPa
Visibilité 10 km ou plus
pas de nuages en-dessous de 1500 mètres et pas de cumulonimbus.

METAR: LFMV 241900Z AUTO 34016KT CAVOK 25/12 Q1015 BECMG 35015G30KT

Heure: 21:38 (19:38 UTC)

Prévision

Le bulletin a été fait il y a 5 heures et 38 minutes, à 14:00 UTC
Prévision valable du 24 à 15 UTC au 25 à 15 UTC
Vent 15 kt de nord avec des rafales jusqu'à 30 kt
Visibilité 10 km ou plus
pas de nuages en-dessous de 1500 mètres et pas de cumulonimbus.

TAF: LFMV 241400Z 2415/2515 35015G30KT CAVOK

Observations et prévisions météorologiques de plus de 4000 aéroports (messages METAR et TAF).

Les stations disponibles sont représentées par des disques jaunes et rouges sur la carte.

Passer la souris dessus pour voir le nom de la station.

Cliquer dessus pour voir les observations et prévisions météorologiques.

Pour changer de carte: cliquez sur les boutons verts avec une croix noire pour zoomer, sur le bouton vert avec un tiret pour effectuer un zoom arrière, ou sur les flèches vertes pour les cartes adjacentes.


METAR-TAF: